sensor_id;sensor_type;location;lat;lon;timestamp;temperature;humidity
9450;DHT22;4763;48.370;10.874;2022-09-06T00:00:56;16.60;99.90
9450;DHT22;4763;48.370;10.874;2022-09-06T00:03:23;16.60;99.90
9450;DHT22;4763;48.370;10.874;2022-09-06T00:05:53;16.50;99.90
9450;DHT22;4763;48.370;10.874;2022-09-06T00:08:20;16.50;99.90
9450;DHT22;4763;48.370;10.874;2022-09-06T00:10:47;16.50;99.90
9450;DHT22;4763;48.370;10.874;2022-09-06T00:13:14;16.50;99.90
9450;DHT22;4763;48.370;10.874;2022-09-06T00:15:40;16.50;99.90
9450;DHT22;4763;48.370;10.874;2022-09-06T00:18:07;16.50;99.90
9450;DHT22;4763;48.370;10.874;2022-09-06T00:20:36;16.50;99.90
9450;DHT22;4763;48.370;10.874;2022-09-06T00:23:07;16.50;99.90
9450;DHT22;4763;48.370;10.874;2022-09-06T00:25:34;16.40;99.90
9450;DHT22;4763;48.370;10.874;2022-09-06T00:33:27;16.40;99.90
9450;DHT22;4763;48.370;10.874;2022-09-06T00:35:58;16.30;99.90
9450;DHT22;4763;48.370;10.874;2022-09-06T00:38:33;16.20;99.90
9450;DHT22;4763;48.370;10.874;2022-09-06T00:41:01;16.20;99.90
9450;DHT22;4763;48.370;10.874;2022-09-06T00:43:29;16.20;99.90
9450;DHT22;4763;48.370;10.874;2022-09-06T00:45:59;16.10;99.90
9450;DHT22;4763;48.370;10.874;2022-09-06T00:48:28;16.20;99.90
9450;DHT22;4763;48.370;10.874;2022-09-06T00:50:59;16.20;99.90
9450;DHT22;4763;48.370;10.874;2022-09-06T00:53:30;16.10;99.90
9450;DHT22;4763;48.370;10.874;2022-09-06T00:56:08;16.20;99.90
9450;DHT22;4763;48.370;10.874;2022-09-06T00:58:38;16.20;99.90
9450;DHT22;4763;48.370;10.874;2022-09-06T01:01:08;16.20;99.90
9450;DHT22;4763;48.370;10.874;2022-09-06T01:03:37;16.20;99.90
9450;DHT22;4763;48.370;10.874;2022-09-06T01:06:17;16.20;99.90
9450;DHT22;4763;48.370;10.874;2022-09-06T01:08:59;16.10;99.90
9450;DHT22;4763;48.370;10.874;2022-09-06T01:11:42;16.00;99.90
9450;DHT22;4763;48.370;10.874;2022-09-06T01:14:42;16.00;99.90
9450;DHT22;4763;48.370;10.874;2022-09-06T01:17:16;15.90;99.90
9450;DHT22;4763;48.370;10.874;2022-09-06T01:23:18;16.00;99.90
9450;DHT22;4763;48.370;10.874;2022-09-06T01:26:02;15.90;99.90
9450;DHT22;4763;48.370;10.874;2022-09-06T01:28:33;15.90;99.90
9450;DHT22;4763;48.370;10.874;2022-09-06T01:31:15;15.80;99.90
9450;DHT22;4763;48.370;10.874;2022-09-06T01:33:49;15.80;99.90
9450;DHT22;4763;48.370;10.874;2022-09-06T01:36:21;15.70;99.90
9450;DHT22;4763;48.370;10.874;2022-09-06T01:55:06;15.60;99.90
9450;DHT22;4763;48.370;10.874;2022-09-06T02:08:49;15.60;99.90
9450;DHT22;4763;48.370;10.874;2022-09-06T02:14:13;15.50;99.90
9450;DHT22;4763;48.370;10.874;2022-09-06T02:16:49;15.50;99.90
9450;DHT22;4763;48.370;10.874;2022-09-06T02:25:52;15.50;99.90
9450;DHT22;4763;48.370;10.874;2022-09-06T02:28:27;15.40;99.90
9450;DHT22;4763;48.370;10.874;2022-09-06T02:31:18;15.50;99.90
9450;DHT22;4763;48.370;10.874;2022-09-06T02:33:52;15.50;99.90
9450;DHT22;4763;48.370;10.874;2022-09-06T02:36:45;15.50;99.90
9450;DHT22;4763;48.370;10.874;2022-09-06T02:42:45;15.40;99.90
9450;DHT22;4763;48.370;10.874;2022-09-06T04:05:43;15.00;99.90
9450;DHT22;4763;48.370;10.874;2022-09-06T04:08:10;15.00;99.90
9450;DHT22;4763;48.370;10.874;2022-09-06T04:10:38;14.90;99.90
9450;DHT22;4763;48.370;10.874;2022-09-06T04:13:11;14.90;99.90
9450;DHT22;4763;48.370;10.874;2022-09-06T04:15:51;14.90;99.90
9450;DHT22;4763;48.370;10.874;2022-09-06T04:18:19;14.90;99.90
9450;DHT22;4763;48.370;10.874;2022-09-06T04:21:29;14.90;99.90
9450;DHT22;4763;48.370;10.874;2022-09-06T04:24:44;15.00;99.90
9450;DHT22;4763;48.370;10.874;2022-09-06T06:22:18;16.50;99.90
9450;DHT22;4763;48.370;10.874;2022-09-06T06:24:45;16.40;99.90
9450;DHT22;4763;48.370;10.874;2022-09-06T06:27:12;16.50;99.90
9450;DHT22;4763;48.370;10.874;2022-09-06T10:19:08;25.50;99.90
9450;DHT22;4763;48.370;10.874;2022-09-06T10:21:47;25.90;99.90
9450;DHT22;4763;48.370;10.874;2022-09-06T10:24:32;25.90;99.90
9450;DHT22;4763;48.370;10.874;2022-09-06T10:34:39;25.90;99.90
9450;DHT22;4763;48.370;10.874;2022-09-06T11:40:27;28.00;99.90
9450;DHT22;4763;48.370;10.874;2022-09-06T11:43:11;27.90;99.90
9450;DHT22;4763;48.370;10.874;2022-09-06T11:45:42;27.80;99.90
9450;DHT22;4763;48.370;10.874;2022-09-06T11:48:49;27.80;99.90
9450;DHT22;4763;48.370;10.874;2022-09-06T11:51:36;27.80;99.90
9450;DHT22;4763;48.370;10.874;2022-09-06T11:54:10;27.50;99.90
9450;DHT22;4763;48.370;10.874;2022-09-06T11:56:53;27.60;99.90
9450;DHT22;4763;48.370;10.874;2022-09-06T11:59:30;27.60;99.90
9450;DHT22;4763;48.370;10.874;2022-09-06T12:02:01;27.60;99.90
9450;DHT22;4763;48.370;10.874;2022-09-06T12:08:26;28.10;99.90
9450;DHT22;4763;48.370;10.874;2022-09-06T12:13:48;28.00;99.90
9450;DHT22;4763;48.370;10.874;2022-09-06T12:16:17;28.10;99.90
9450;DHT22;4763;48.370;10.874;2022-09-06T12:18:59;28.30;99.90
9450;DHT22;4763;48.370;10.874;2022-09-06T12:21:38;28.40;99.90
9450;DHT22;4763;48.370;10.874;2022-09-06T12:24:07;28.60;99.90
9450;DHT22;4763;48.370;10.874;2022-09-06T12:26:47;29.10;99.90
9450;DHT22;4763;48.370;10.874;2022-09-06T12:29:22;29.10;99.90
9450;DHT22;4763;48.370;10.874;2022-09-06T12:31:51;28.90;99.90
9450;DHT22;4763;48.370;10.874;2022-09-06T12:34:21;29.00;99.90
9450;DHT22;4763;48.370;10.874;2022-09-06T12:36:55;28.90;99.90
9450;DHT22;4763;48.370;10.874;2022-09-06T12:39:23;28.70;99.90
9450;DHT22;4763;48.370;10.874;2022-09-06T12:41:53;28.40;99.90
9450;DHT22;4763;48.370;10.874;2022-09-06T12:44:31;28.30;99.90
9450;DHT22;4763;48.370;10.874;2022-09-06T12:47:03;28.10;99.90
9450;DHT22;4763;48.370;10.874;2022-09-06T12:49:32;28.10;99.90
9450;DHT22;4763;48.370;10.874;2022-09-06T12:52:07;28.00;99.90
9450;DHT22;4763;48.370;10.874;2022-09-06T12:54:41;28.20;99.90
9450;DHT22;4763;48.370;10.874;2022-09-06T12:57:16;28.30;99.90
9450;DHT22;4763;48.370;10.874;2022-09-06T12:59:49;28.30;99.90
9450;DHT22;4763;48.370;10.874;2022-09-06T13:02:23;28.20;99.90
9450;DHT22;4763;48.370;10.874;2022-09-06T13:04:55;28.10;99.90
9450;DHT22;4763;48.370;10.874;2022-09-06T13:07:26;27.80;99.90
9450;DHT22;4763;48.370;10.874;2022-09-06T13:09:56;27.80;99.90
9450;DHT22;4763;48.370;10.874;2022-09-06T13:12:26;27.90;99.90
9450;DHT22;4763;48.370;10.874;2022-09-06T13:14:57;27.90;99.90
9450;DHT22;4763;48.370;10.874;2022-09-06T13:17:28;27.80;99.90
9450;DHT22;4763;48.370;10.874;2022-09-06T13:19:56;27.90;99.90
9450;DHT22;4763;48.370;10.874;2022-09-06T13:22:41;28.10;99.90
9450;DHT22;4763;48.370;10.874;2022-09-06T13:25:14;28.40;99.90
9450;DHT22;4763;48.370;10.874;2022-09-06T13:27:42;28.70;99.90
9450;DHT22;4763;48.370;10.874;2022-09-06T13:33:22;28.80;99.90
9450;DHT22;4763;48.370;10.874;2022-09-06T13:36:04;29.00;99.90
9450;DHT22;4763;48.370;10.874;2022-09-06T13:38:33;29.20;99.90
9450;DHT22;4763;48.370;10.874;2022-09-06T13:41:01;29.30;99.90
9450;DHT22;4763;48.370;10.874;2022-09-06T13:43:28;29.70;99.90
9450;DHT22;4763;48.370;10.874;2022-09-06T13:46:05;30.00;99.90
9450;DHT22;4763;48.370;10.874;2022-09-06T13:48:33;30.30;99.90
9450;DHT22;4763;48.370;10.874;2022-09-06T13:51:03;30.40;99.90
9450;DHT22;4763;48.370;10.874;2022-09-06T13:53:31;30.80;99.90
9450;DHT22;4763;48.370;10.874;2022-09-06T13:55:58;30.60;99.90
9450;DHT22;4763;48.370;10.874;2022-09-06T13:58:25;30.20;99.90
9450;DHT22;4763;48.370;10.874;2022-09-06T14:00:52;29.80;99.90
9450;DHT22;4763;48.370;10.874;2022-09-06T14:03:21;29.60;99.90
9450;DHT22;4763;48.370;10.874;2022-09-06T14:05:50;29.10;99.90
9450;DHT22;4763;48.370;10.874;2022-09-06T14:08:17;29.10;99.90
9450;DHT22;4763;48.370;10.874;2022-09-06T14:10:44;29.00;99.90
9450;DHT22;4763;48.370;10.874;2022-09-06T14:13:13;28.70;99.90
9450;DHT22;4763;48.370;10.874;2022-09-06T14:15:39;28.50;99.90
9450;DHT22;4763;48.370;10.874;2022-09-06T14:18:06;28.50;99.90
9450;DHT22;4763;48.370;10.874;2022-09-06T14:20:33;28.40;99.90
9450;DHT22;4763;48.370;10.874;2022-09-06T14:23:01;28.40;99.90
9450;DHT22;4763;48.370;10.874;2022-09-06T14:25:28;28.30;99.90
9450;DHT22;4763;48.370;10.874;2022-09-06T14:27:55;28.20;99.90
9450;DHT22;4763;48.370;10.874;2022-09-06T14:30:22;28.00;99.90
9450;DHT22;4763;48.370;10.874;2022-09-06T14:32:49;28.00;99.90
9450;DHT22;4763;48.370;10.874;2022-09-06T14:35:15;27.80;99.90
9450;DHT22;4763;48.370;10.874;2022-09-06T14:37:42;27.70;99.90
9450;DHT22;4763;48.370;10.874;2022-09-06T14:40:11;27.60;99.90
9450;DHT22;4763;48.370;10.874;2022-09-06T14:42:38;27.50;99.90
9450;DHT22;4763;48.370;10.874;2022-09-06T14:45:06;27.50;99.90
9450;DHT22;4763;48.370;10.874;2022-09-06T14:47:33;27.50;99.90
9450;DHT22;4763;48.370;10.874;2022-09-06T14:50:00;27.30;99.90
9450;DHT22;4763;48.370;10.874;2022-09-06T14:52:27;27.00;99.90
9450;DHT22;4763;48.370;10.874;2022-09-06T14:54:54;27.10;99.90
9450;DHT22;4763;48.370;10.874;2022-09-06T14:57:22;27.10;99.90
9450;DHT22;4763;48.370;10.874;2022-09-06T14:59:49;27.00;99.90
9450;DHT22;4763;48.370;10.874;2022-09-06T15:02:16;26.90;99.90
9450;DHT22;4763;48.370;10.874;2022-09-06T15:04:43;26.90;99.90
9450;DHT22;4763;48.370;10.874;2022-09-06T15:07:10;26.90;99.90
9450;DHT22;4763;48.370;10.874;2022-09-06T15:09:37;26.80;99.90
9450;DHT22;4763;48.370;10.874;2022-09-06T15:12:04;26.80;99.90
9450;DHT22;4763;48.370;10.874;2022-09-06T15:14:32;26.80;99.90
9450;DHT22;4763;48.370;10.874;2022-09-06T15:17:01;26.70;99.90
9450;DHT22;4763;48.370;10.874;2022-09-06T15:19:30;26.80;99.90
9450;DHT22;4763;48.370;10.874;2022-09-06T15:21:59;26.80;99.90
9450;DHT22;4763;48.370;10.874;2022-09-06T15:24:26;26.80;99.90
9450;DHT22;4763;48.370;10.874;2022-09-06T15:26:54;26.80;99.90
9450;DHT22;4763;48.370;10.874;2022-09-06T15:29:20;26.70;99.90
9450;DHT22;4763;48.370;10.874;2022-09-06T15:31:49;26.70;99.90
9450;DHT22;4763;48.370;10.874;2022-09-06T15:34:17;26.70;99.90
9450;DHT22;4763;48.370;10.874;2022-09-06T15:36:44;26.70;99.90
9450;DHT22;4763;48.370;10.874;2022-09-06T15:39:12;26.70;99.90
9450;DHT22;4763;48.370;10.874;2022-09-06T15:41:39;26.60;99.90
9450;DHT22;4763;48.370;10.874;2022-09-06T15:44:08;26.60;99.90
9450;DHT22;4763;48.370;10.874;2022-09-06T15:46:44;26.50;99.90
9450;DHT22;4763;48.370;10.874;2022-09-06T15:49:15;26.40;99.90
9450;DHT22;4763;48.370;10.874;2022-09-06T15:51:42;26.40;99.90
9450;DHT22;4763;48.370;10.874;2022-09-06T15:54:11;26.40;99.90
9450;DHT22;4763;48.370;10.874;2022-09-06T15:56:38;26.20;99.90
9450;DHT22;4763;48.370;10.874;2022-09-06T15:59:04;26.20;99.90
9450;DHT22;4763;48.370;10.874;2022-09-06T16:01:32;26.10;99.90
9450;DHT22;4763;48.370;10.874;2022-09-06T16:04:00;25.90;99.90
9450;DHT22;4763;48.370;10.874;2022-09-06T16:06:34;25.90;99.90
9450;DHT22;4763;48.370;10.874;2022-09-06T16:09:03;25.90;99.90
9450;DHT22;4763;48.370;10.874;2022-09-06T16:11:31;25.90;99.90
9450;DHT22;4763;48.370;10.874;2022-09-06T16:14:01;25.80;99.90
9450;DHT22;4763;48.370;10.874;2022-09-06T16:16:28;25.70;99.90
9450;DHT22;4763;48.370;10.874;2022-09-06T16:18:56;25.70;99.90
9450;DHT22;4763;48.370;10.874;2022-09-06T16:21:26;25.70;99.90
9450;DHT22;4763;48.370;10.874;2022-09-06T16:23:57;25.60;99.90
9450;DHT22;4763;48.370;10.874;2022-09-06T16:26:26;25.60;99.90
9450;DHT22;4763;48.370;10.874;2022-09-06T16:28:53;25.60;99.90
9450;DHT22;4763;48.370;10.874;2022-09-06T16:31:20;25.70;99.90
9450;DHT22;4763;48.370;10.874;2022-09-06T16:33:48;25.80;99.90
9450;DHT22;4763;48.370;10.874;2022-09-06T16:36:16;25.80;99.90
9450;DHT22;4763;48.370;10.874;2022-09-06T16:38:44;25.70;99.90
9450;DHT22;4763;48.370;10.874;2022-09-06T16:41:15;25.70;99.90
9450;DHT22;4763;48.370;10.874;2022-09-06T16:43:43;25.70;99.90
9450;DHT22;4763;48.370;10.874;2022-09-06T16:46:10;25.60;99.90
9450;DHT22;4763;48.370;10.874;2022-09-06T16:48:37;25.50;99.90
9450;DHT22;4763;48.370;10.874;2022-09-06T16:51:10;25.40;99.90
9450;DHT22;4763;48.370;10.874;2022-09-06T16:53:38;25.30;99.90
9450;DHT22;4763;48.370;10.874;2022-09-06T16:56:06;25.20;99.90
9450;DHT22;4763;48.370;10.874;2022-09-06T16:58:34;25.10;99.90
9450;DHT22;4763;48.370;10.874;2022-09-06T17:01:03;25.00;99.90
9450;DHT22;4763;48.370;10.874;2022-09-06T17:03:31;25.00;99.90
9450;DHT22;4763;48.370;10.874;2022-09-06T17:05:57;24.90;99.90
9450;DHT22;4763;48.370;10.874;2022-09-06T17:08:24;24.80;99.90
9450;DHT22;4763;48.370;10.874;2022-09-06T17:10:51;24.80;99.90
9450;DHT22;4763;48.370;10.874;2022-09-06T17:13:19;24.70;99.90
9450;DHT22;4763;48.370;10.874;2022-09-06T17:15:52;24.70;99.90
9450;DHT22;4763;48.370;10.874;2022-09-06T17:18:37;24.60;99.90
9450;DHT22;4763;48.370;10.874;2022-09-06T17:21:04;24.50;99.90
9450;DHT22;4763;48.370;10.874;2022-09-06T17:23:32;24.30;99.90
9450;DHT22;4763;48.370;10.874;2022-09-06T17:26:00;24.20;99.90
9450;DHT22;4763;48.370;10.874;2022-09-06T17:28:27;24.10;99.90
9450;DHT22;4763;48.370;10.874;2022-09-06T17:30:58;23.90;99.90
9450;DHT22;4763;48.370;10.874;2022-09-06T17:33:25;23.80;99.90
9450;DHT22;4763;48.370;10.874;2022-09-06T17:35:52;23.70;99.90
9450;DHT22;4763;48.370;10.874;2022-09-06T17:38:19;23.70;99.90
9450;DHT22;4763;48.370;10.874;2022-09-06T17:40:55;23.70;99.90
9450;DHT22;4763;48.370;10.874;2022-09-06T17:43:24;23.50;99.90
9450;DHT22;4763;48.370;10.874;2022-09-06T17:45:50;23.40;99.90
9450;DHT22;4763;48.370;10.874;2022-09-06T17:48:19;23.30;99.90
9450;DHT22;4763;48.370;10.874;2022-09-06T17:50:45;23.20;99.90
9450;DHT22;4763;48.370;10.874;2022-09-06T17:53:12;23.10;99.90
9450;DHT22;4763;48.370;10.874;2022-09-06T17:55:40;23.10;99.90
9450;DHT22;4763;48.370;10.874;2022-09-06T17:58:08;23.00;99.90
9450;DHT22;4763;48.370;10.874;2022-09-06T18:00:37;22.80;99.90
9450;DHT22;4763;48.370;10.874;2022-09-06T18:03:04;22.70;99.90
9450;DHT22;4763;48.370;10.874;2022-09-06T18:05:35;22.60;99.90
9450;DHT22;4763;48.370;10.874;2022-09-06T18:08:03;22.60;99.90
9450;DHT22;4763;48.370;10.874;2022-09-06T18:10:32;22.50;99.90
9450;DHT22;4763;48.370;10.874;2022-09-06T18:12:59;22.50;99.90
9450;DHT22;4763;48.370;10.874;2022-09-06T18:15:26;22.40;99.90
9450;DHT22;4763;48.370;10.874;2022-09-06T18:17:53;22.40;99.90
9450;DHT22;4763;48.370;10.874;2022-09-06T18:20:19;22.30;99.90
9450;DHT22;4763;48.370;10.874;2022-09-06T18:22:49;22.20;99.90
9450;DHT22;4763;48.370;10.874;2022-09-06T18:25:16;22.10;99.90
9450;DHT22;4763;48.370;10.874;2022-09-06T18:27:43;22.10;99.90
9450;DHT22;4763;48.370;10.874;2022-09-06T18:30:10;22.00;99.90
9450;DHT22;4763;48.370;10.874;2022-09-06T18:32:37;21.90;99.90
9450;DHT22;4763;48.370;10.874;2022-09-06T18:35:06;21.90;99.90
9450;DHT22;4763;48.370;10.874;2022-09-06T18:37:33;21.80;99.90
9450;DHT22;4763;48.370;10.874;2022-09-06T18:40:03;21.80;99.90
9450;DHT22;4763;48.370;10.874;2022-09-06T18:42:30;21.70;99.90
9450;DHT22;4763;48.370;10.874;2022-09-06T18:44:56;21.70;99.90
9450;DHT22;4763;48.370;10.874;2022-09-06T18:47:23;21.80;99.90
9450;DHT22;4763;48.370;10.874;2022-09-06T18:49:50;21.80;99.90
9450;DHT22;4763;48.370;10.874;2022-09-06T18:52:17;21.80;99.90
9450;DHT22;4763;48.370;10.874;2022-09-06T18:54:45;21.80;99.90
